Time;durP1;ratioP1;P1;durP2;ratioP2;P2;SDS_P1;SDS_P2;PMS_P1;PMS_P2;Temp;Humidity;BMP_temperature;BMP_pressure;BME280_temperature;BME280_humidity;BME280_pressure;Samples;Min_cycle;Max_cycle;Signal;HPM_P1;HPM_P2
2022/05/04 00:00:01;;;;;;;10.90;3.13;;;9.30;99.90;;;;;;12421160;28;20084;-38
2022/05/04 00:06:03;;;;;;;15.68;3.97;;;9.20;99.90;;;;;;12428083;28;20054;-36
2022/05/04 00:12:06;;;;;;;11.23;3.40;;;9.30;99.90;;;;;;12427774;28;20045;-37
2022/05/04 00:18:08;;;;;;;10.68;3.42;;;9.30;99.90;;;;;;12426884;28;20064;-36
2022/05/04 00:24:10;;;;;;;15.05;3.63;;;9.30;99.90;;;;;;12424049;28;20498;-36
2022/05/04 00:30:12;;;;;;;11.02;3.03;;;9.10;99.90;;;;;;12424399;28;20501;-37
2022/05/04 00:36:14;;;;;;;11.07;3.67;;;9.10;99.90;;;;;;12426273;28;20046;-36
2022/05/04 00:42:18;;;;;;;10.05;3.08;;;9.00;99.90;;;;;;12430707;28;20961;-39
2022/05/04 00:48:20;;;;;;;11.90;3.88;;;8.90;99.90;;;;;;12424481;28;20141;-39
2022/05/04 00:54:22;;;;;;;11.40;3.42;;;8.90;99.90;;;;;;12423330;28;20697;-37
2022/05/04 01:00:26;;;;;;;11.70;3.15;;;8.80;99.90;;;;;;12424206;28;20053;-38
2022/05/04 01:06:28;;;;;;;12.73;3.42;;;8.70;99.90;;;;;;12424862;28;20062;-36
2022/05/04 01:12:31;;;;;;;11.23;3.38;;;8.60;99.90;;;;;;12424345;28;20056;-36
2022/05/04 01:18:33;;;;;;;13.77;3.47;;;8.70;99.90;;;;;;12424581;28;20056;-36
2022/05/04 01:24:35;;;;;;;15.00;3.63;;;8.60;99.90;;;;;;12428876;28;20076;-38
2022/05/04 01:30:37;;;;;;;11.90;3.60;;;8.50;99.90;;;;;;12425610;28;20042;-36
2022/05/04 01:36:40;;;;;;;18.08;3.85;;;8.50;99.90;;;;;;12424932;28;20050;-36
2022/05/04 01:42:42;;;;;;;8.95;3.42;;;8.50;99.90;;;;;;12422378;28;20112;-38
2022/05/04 01:48:44;;;;;;;12.73;4.10;;;8.50;99.90;;;;;;12424186;28;20058;-36
2022/05/04 01:54:46;;;;;;;9.38;3.65;;;8.40;99.90;;;;;;12423509;28;20569;-36
2022/05/04 02:00:50;;;;;;;11.00;3.70;;;8.40;99.90;;;;;;12422448;28;20144;-36
2022/05/04 02:06:52;;;;;;;12.07;3.47;;;8.40;99.90;;;;;;12423817;28;20081;-38
2022/05/04 02:12:54;;;;;;;12.90;3.42;;;8.30;99.90;;;;;;12424699;28;20053;-37
2022/05/04 02:18:57;;;;;;;16.05;4.07;;;8.30;99.90;;;;;;12421520;28;20054;-38
2022/05/04 02:24:59;;;;;;;13.15;3.28;;;8.20;99.90;;;;;;12422302;28;20065;-38
2022/05/04 02:31:01;;;;;;;14.00;3.45;;;8.00;99.90;;;;;;12420933;28;20053;-36
2022/05/04 02:43:26;;;;;;;16.25;3.80;;;7.80;99.90;;;;;;12421687;28;20124;-38
2022/05/04 02:49:28;;;;;;;9.53;3.20;;;7.80;99.90;;;;;;12424482;28;20061;-38
2022/05/04 02:55:30;;;;;;;10.32;2.83;;;7.90;99.90;;;;;;12422011;28;20392;-36
2022/05/04 03:07:55;;;;;;;11.98;2.92;;;8.10;99.90;;;;;;12421144;28;20395;-37
2022/05/04 03:13:57;;;;;;;13.00;3.40;;;8.10;99.90;;;;;;12421845;28;20604;-36
2022/05/04 03:20:00;;;;;;;16.90;2.80;;;8.10;99.90;;;;;;12422386;28;20050;-35
2022/05/04 03:26:02;;;;;;;10.00;3.30;;;7.90;99.90;;;;;;12378642;28;20046;-38
2022/05/04 03:32:05;;;;;;;15.90;4.47;;;7.90;99.90;;;;;;12372349;28;20406;-36
2022/05/04 03:38:07;;;;;;;14.38;2.65;;;7.90;99.90;;;;;;12370568;28;20062;-43
2022/05/04 03:44:09;;;;;;;10.77;2.75;;;7.90;99.90;;;;;;12375239;28;20080;-36
2022/05/04 03:50:11;;;;;;;12.38;2.67;;;7.80;99.90;;;;;;12368057;28;20415;-37
2022/05/04 03:56:14;;;;;;;12.77;2.47;;;7.80;99.90;;;;;;12370716;28;20134;-36
2022/05/04 04:02:16;;;;;;;12.38;3.05;;;7.80;99.90;;;;;;12369226;28;20050;-36
2022/05/04 04:08:18;;;;;;;11.65;2.47;;;7.80;99.90;;;;;;12363312;28;20053;-37
2022/05/04 04:14:20;;;;;;;11.15;2.55;;;7.80;99.90;;;;;;12366599;28;20054;-36
2022/05/04 04:26:43;;;;;;;11.98;2.72;;;7.60;99.90;;;;;;12367926;28;20046;-36
2022/05/04 04:32:45;;;;;;;13.00;2.63;;;7.60;99.90;;;;;;12371564;28;20092;-37
2022/05/04 04:38:47;;;;;;;10.32;2.70;;;7.70;99.90;;;;;;12373108;28;20081;-37
2022/05/04 04:44:49;;;;;;;11.18;2.80;;;7.80;99.90;;;;;;12374945;28;20486;-36
2022/05/04 04:50:51;;;;;;;7.22;2.35;;;7.80;99.90;;;;;;12381985;28;20661;-35
2022/05/04 04:56:59;;;;;;;9.35;2.60;;;7.80;99.90;;;;;;12381206;28;20418;-36
2022/05/04 05:03:01;;;;;;;12.05;4.15;;;7.80;99.90;;;;;;12376514;28;20471;-36
2022/05/04 05:09:04;;;;;;;12.23;3.10;;;8.30;99.90;;;;;;12373731;28;20062;-36
2022/05/04 05:21:27;;;;;;;9.77;2.90;;;8.20;99.90;;;;;;12377631;28;20066;-36
2022/05/04 05:27:32;;;;;;;8.07;2.55;;;8.20;99.90;;;;;;12372883;28;20050;-38
2022/05/04 05:33:35;;;;;;;9.30;3.28;;;8.20;99.90;;;;;;12377863;28;20134;-37
2022/05/04 05:39:37;;;;;;;12.15;3.75;;;8.30;99.90;;;;;;12379377;28;20058;-37
2022/05/04 05:45:39;;;;;;;11.80;3.25;;;8.30;99.90;;;;;;12376948;28;20441;-37
2022/05/04 05:51:42;;;;;;;13.57;3.67;;;8.20;99.90;;;;;;12380265;28;20498;-37
2022/05/04 05:57:44;;;;;;;10.10;3.95;;;8.40;99.90;;;;;;12378145;28;20051;-35
2022/05/04 06:03:46;;;;;;;12.30;3.50;;;8.60;99.90;;;;;;12370358;28;20499;-35
2022/05/04 06:09:49;;;;;;;17.88;4.05;;;8.70;99.90;;;;;;12369063;28;20159;-37
2022/05/04 06:15:52;;;;;;;10.63;3.78;;;8.80;99.90;;;;;;12379922;28;20046;-38
2022/05/04 06:21:58;;;;;;;12.35;3.90;;;8.90;99.90;;;;;;12379328;28;20133;-37
2022/05/04 06:28:01;;;;;;;14.48;3.22;;;9.00;99.90;;;;;;12381021;28;20486;-37
2022/05/04 06:34:07;;;;;;;13.45;3.42;;;9.10;99.90;;;;;;12380030;28;20042;-37
2022/05/04 06:40:11;;;;;;;9.85;2.83;;;9.10;99.90;;;;;;12377697;28;20050;-35
2022/05/04 06:46:15;;;;;;;12.98;3.33;;;9.20;99.90;;;;;;12348910;28;20438;-37
2022/05/04 06:52:17;;;;;;;12.77;2.87;;;9.30;99.90;;;;;;12358307;28;20089;-36
2022/05/04 06:58:19;;;;;;;11.30;3.30;;;9.70;99.90;;;;;;12375926;28;20057;-37
2022/05/04 07:04:21;;;;;;;12.85;3.20;;;9.90;99.90;;;;;;12378624;28;20047;-36
2022/05/04 07:10:24;;;;;;;19.20;3.08;;;10.10;99.90;;;;;;12375285;28;20431;-36
2022/05/04 07:16:26;;;;;;;18.10;3.30;;;10.20;99.90;;;;;;12375256;28;20054;-38
2022/05/04 07:22:28;;;;;;;8.57;2.63;;;10.30;99.90;;;;;;12376624;28;20541;-37
2022/05/04 07:28:31;;;;;;;13.15;2.78;;;10.40;99.90;;;;;;12375964;28;20050;-45
2022/05/04 07:34:33;;;;;;;9.57;2.83;;;10.60;99.90;;;;;;12375011;28;20049;-38
2022/05/04 07:46:55;;;;;;;11.98;3.88;;;10.80;99.90;;;;;;12378977;28;20065;-39
2022/05/04 07:52:57;;;;;;;11.00;2.97;;;10.90;99.90;;;;;;12375477;28;20162;-37
2022/05/04 07:59:00;;;;;;;9.40;2.72;;;11.00;99.90;;;;;;12371977;28;20504;-36
2022/05/04 08:05:02;;;;;;;11.60;3.33;;;11.30;99.90;;;;;;12376454;28;20046;-37
2022/05/04 08:11:05;;;;;;;11.02;2.97;;;11.40;99.90;;;;;;12376933;28;20172;-36
2022/05/04 08:17:08;;;;;;;13.30;3.13;;;11.70;99.90;;;;;;12373736;28;20050;-38
2022/05/04 08:23:10;;;;;;;11.00;3.60;;;11.80;99.90;;;;;;12385050;28;20297;-38
2022/05/04 08:29:14;;;;;;;11.70;2.80;;;11.90;99.90;;;;;;12383504;28;20053;-39
2022/05/04 08:35:17;;;;;;;9.57;2.70;;;12.20;99.90;;;;;;12385274;28;20395;-38
2022/05/04 08:41:22;;;;;;;7.47;2.60;;;12.20;99.90;;;;;;12379743;28;20195;-38
2022/05/04 08:47:29;;;;;;;7.70;2.70;;;12.40;99.90;;;;;;12382773;28;20074;-38
2022/05/04 08:53:32;;;;;;;11.10;2.90;;;12.50;99.90;;;;;;12381730;28;20061;-38
2022/05/04 08:59:35;;;;;;;10.40;2.90;;;12.80;99.90;;;;;;12385292;28;20057;-36
2022/05/04 09:05:46;;;;;;;12.48;2.60;;;13.00;99.90;;;;;;12381400;28;20406;-37
2022/05/04 09:12:08;;;;;;;10.18;2.67;;;13.00;99.90;;;;;;12384359;28;20057;-37
2022/05/04 09:18:20;;;;;;;14.05;3.00;;;13.30;99.90;;;;;;12384924;28;20498;-36
2022/05/04 09:24:27;;;;;;;7.25;2.60;;;13.60;99.90;;;;;;12384397;28;20046;-37
2022/05/04 09:30:29;;;;;;;14.50;3.20;;;13.60;99.90;;;;;;12364371;28;20471;-38
2022/05/04 09:36:36;;;;;;;12.75;3.47;;;13.60;99.90;;;;;;12385516;28;20053;-37
2022/05/04 09:49:18;;;;;;;10.73;3.10;;;14.10;99.90;;;;;;12382410;28;20491;-38
2022/05/04 09:55:25;;;;;;;13.75;3.47;;;14.40;99.90;;;;;;12382363;28;20046;-39
2022/05/04 10:01:28;;;;;;;12.50;4.15;;;14.40;99.90;;;;;;12381733;28;20069;-39
2022/05/04 10:07:32;;;;;;;10.18;3.40;;;14.60;99.90;;;;;;12383610;28;20050;-37
2022/05/04 10:13:34;;;;;;;;;;;14.80;99.90;;;;;;12382036;28;20509;-37
2022/05/04 10:19:48;;;;;;;9.73;3.97;;;15.20;99.90;;;;;;12381843;28;19964;-39
2022/05/04 10:25:52;;;;;;;14.07;4.97;;;14.90;99.90;;;;;;12383445;28;20112;-37
2022/05/04 10:31:56;;;;;;;11.02;3.63;;;15.30;99.90;;;;;;12382354;28;20046;-37
2022/05/04 10:38:01;;;;;;;10.35;3.67;;;15.60;99.90;;;;;;12379898;28;20050;-39
2022/05/04 10:44:09;;;;;;;10.75;4.63;;;15.60;99.90;;;;;;12381224;28;20517;-39
2022/05/04 10:50:11;;;;;;;9.85;4.15;;;15.90;99.90;;;;;;12371251;28;20058;-37
2022/05/04 10:56:22;;;;;;;12.32;4.75;;;15.60;99.90;;;;;;12383158;28;20057;-38
2022/05/04 11:02:24;;;;;;;9.07;4.20;;;16.10;99.90;;;;;;12374281;28;20442;-37
2022/05/04 11:08:26;;;;;;;15.20;5.25;;;16.40;99.90;;;;;;12372154;28;20073;-36
2022/05/04 11:14:29;;;;;;;11.05;5.57;;;16.90;99.90;;;;;;12369778;28;20524;-36
2022/05/04 11:20:31;;;;;;;13.68;5.32;;;16.30;99.90;;;;;;12370908;28;20104;-38
2022/05/04 11:26:42;;;;;;;15.25;5.40;;;16.40;99.90;;;;;;12373925;28;20051;-37
2022/05/04 11:32:50;;;;;;;12.35;5.43;;;16.30;99.90;;;;;;12374296;28;20415;-38
2022/05/04 11:38:52;;;;;;;10.98;4.90;;;15.70;99.90;;;;;;12378443;28;20100;-36
2022/05/04 11:44:56;;;;;;;10.48;4.40;;;15.80;99.90;;;;;;12377410;28;20747;-39
2022/05/04 11:50:59;;;;;;;10.43;4.80;;;16.30;99.90;;;;;;12373490;28;20058;-38
2022/05/04 11:57:01;;;;;;;9.23;5.25;;;16.90;99.90;;;;;;12382154;28;20097;-38
2022/05/04 12:03:05;;;;;;;13.48;4.70;;;17.20;99.90;;;;;;12382123;28;20605;-37
2022/05/04 12:09:08;;;;;;;12.00;5.07;;;17.20;99.90;;;;;;12383424;28;20058;-39
2022/05/04 12:15:11;;;;;;;12.43;5.03;;;17.00;99.90;;;;;;12381655;28;20606;-37
2022/05/04 12:21:16;;;;;;;11.57;5.00;;;16.40;99.90;;;;;;12381755;28;20140;-38
2022/05/04 12:27:18;;;;;;;12.80;5.50;;;16.60;99.90;;;;;;12385255;28;20059;-36
2022/05/04 12:33:20;;;;;;;10.48;5.10;;;16.90;99.90;;;;;;12386238;28;20053;-37
2022/05/04 12:39:23;;;;;;;14.18;5.55;;;17.10;99.90;;;;;;12385757;28;20047;-36
2022/05/04 12:45:26;;;;;;;12.32;5.13;;;16.90;99.90;;;;;;12381208;28;20430;-38
2022/05/04 12:51:28;;;;;;;13.00;5.75;;;16.60;99.90;;;;;;12384791;28;20055;-38
2022/05/04 12:57:31;;;;;;;11.10;5.50;;;16.80;99.90;;;;;;12383471;28;20132;-37
2022/05/04 13:03:33;;;;;;;10.80;5.85;;;17.20;99.90;;;;;;12377019;28;20089;-38
2022/05/04 13:09:36;;;;;;;15.57;5.80;;;17.30;99.90;;;;;;12380727;28;20059;-37
2022/05/04 13:15:39;;;;;;;11.67;6.57;;;17.50;99.90;;;;;;12379032;28;20050;-38
2022/05/04 13:21:41;;;;;;;14.90;5.10;;;17.50;99.90;;;;;;12378067;28;20199;-37
2022/05/04 13:27:43;;;;;;;13.25;6.00;;;17.80;99.90;;;;;;12379946;28;20141;-38
2022/05/04 13:33:47;;;;;;;14.27;6.78;;;17.60;99.90;;;;;;12376162;28;20061;-38
2022/05/04 13:39:50;;;;;;;11.00;5.40;;;16.80;99.90;;;;;;12385055;28;20053;-37
2022/05/04 13:45:52;;;;;;;11.88;6.00;;;16.40;99.90;;;;;;12381327;28;20077;-38
2022/05/04 13:58:16;;;;;;;13.13;5.82;;;16.50;99.90;;;;;;12371459;28;20177;-38
2022/05/04 14:04:18;;;;;;;14.70;7.00;;;16.60;99.90;;;;;;12380137;28;20057;-36
2022/05/04 14:10:20;;;;;;;11.05;6.20;;;16.80;99.90;;;;;;12376097;28;20149;-38
2022/05/04 14:16:22;;;;;;;10.48;5.82;;;16.90;99.90;;;;;;12374377;28;20058;-37
2022/05/04 14:22:24;;;;;;;12.80;6.15;;;16.40;99.90;;;;;;12377085;28;20073;-36
2022/05/04 14:28:28;;;;;;;13.07;6.55;;;15.80;99.90;;;;;;12378833;28;20050;-36
2022/05/04 14:34:31;;;;;;;11.57;5.47;;;15.50;99.90;;;;;;12372927;28;20046;-37
2022/05/04 14:40:33;;;;;;;12.00;6.00;;;15.90;99.90;;;;;;12372661;28;20121;-37
2022/05/04 14:46:34;;;;;;;8.75;5.50;;;16.40;99.90;;;;;;12378126;28;20152;-37
2022/05/04 14:52:40;;;;;;;11.68;5.82;;;16.50;99.90;;;;;;12376084;28;20129;-39
2022/05/04 14:58:42;;;;;;;11.48;5.82;;;16.70;99.90;;;;;;12374691;28;20058;-38
2022/05/04 15:05:02;;;;;;;11.05;5.25;;;17.30;99.90;;;;;;12373089;28;20108;-37
2022/05/04 15:11:05;;;;;;;7.15;4.90;;;16.90;99.90;;;;;;12374839;28;20864;-38
2022/05/04 15:17:08;;;;;;;10.52;5.80;;;16.30;99.90;;;;;;12367376;28;20153;-38
2022/05/04 15:23:10;;;;;;;14.40;5.30;;;16.00;99.90;;;;;;12372133;28;20054;-37
2022/05/04 15:29:12;;;;;;;10.77;5.20;;;16.30;99.90;;;;;;12373720;28;20109;-37
2022/05/04 15:35:14;;;;;;;14.25;4.75;;;16.70;99.90;;;;;;12371231;28;20092;-38
2022/05/04 15:41:17;;;;;;;9.07;4.78;;;16.40;99.90;;;;;;12358335;28;20049;-37
2022/05/04 15:47:19;;;;;;;10.97;4.73;;;16.20;99.90;;;;;;12362286;28;20054;-36
2022/05/04 15:53:21;;;;;;;11.80;5.30;;;16.10;99.90;;;;;;12370648;28;20512;-38
2022/05/04 15:59:23;;;;;;;11.93;5.28;;;16.40;99.90;;;;;;12372656;28;20089;-39
2022/05/04 16:05:26;;;;;;;8.00;4.32;;;17.00;99.90;;;;;;12375672;28;20093;-37
2022/05/04 16:11:28;;;;;;;10.32;5.20;;;17.20;99.90;;;;;;12369636;28;20329;-37
2022/05/04 16:23:51;;;;;;;11.82;4.10;;;18.20;99.90;;;;;;12373025;28;20885;-38
2022/05/04 16:29:54;;;;;;;8.52;4.45;;;18.00;99.90;;;;;;12372488;28;20053;-36
2022/05/04 16:35:56;;;;;;;8.98;4.13;;;18.20;99.90;;;;;;12374346;28;20138;-38
2022/05/04 16:41:58;;;;;;;7.45;4.22;;;18.50;99.90;;;;;;12375132;28;20057;-38
2022/05/04 16:48:00;;;;;;;11.93;4.40;;;18.20;99.90;;;;;;12379942;28;20149;-36
2022/05/04 16:54:02;;;;;;;9.93;4.00;;;18.10;99.90;;;;;;12377477;28;20054;-39
2022/05/04 17:00:05;;;;;;;9.65;4.20;;;17.20;99.90;;;;;;12375961;28;20089;-37
2022/05/04 17:06:08;;;;;;;8.27;4.07;;;16.90;99.90;;;;;;12375711;28;20049;-37
2022/05/04 17:12:10;;;;;;;10.13;4.38;;;17.20;99.90;;;;;;12377136;28;20054;-37
2022/05/04 17:18:12;;;;;;;9.90;4.32;;;17.40;99.90;;;;;;12376851;28;20478;-37
2022/05/04 17:24:14;;;;;;;9.82;4.50;;;17.70;99.90;;;;;;12375671;28;20096;-37
2022/05/04 17:30:16;;;;;;;10.90;4.15;;;17.80;99.90;;;;;;12376961;28;20137;-36
2022/05/04 17:42:39;;;;;;;11.70;4.90;;;17.50;99.90;;;;;;12378597;28;20093;-38
2022/05/04 17:48:43;;;;;;;9.60;4.60;;;17.70;99.90;;;;;;12374801;28;20449;-37
2022/05/04 17:54:45;;;;;;;10.93;4.60;;;17.60;99.90;;;;;;12377339;28;20057;-39
2022/05/04 18:00:48;;;;;;;9.27;4.28;;;17.50;99.90;;;;;;12377572;28;20137;-38
2022/05/04 18:06:50;;;;;;;10.30;4.63;;;17.10;99.90;;;;;;12378234;28;20050;-38
2022/05/04 18:12:52;;;;;;;8.95;4.70;;;16.50;99.90;;;;;;12375515;28;20198;-38
2022/05/04 18:18:54;;;;;;;12.63;5.63;;;16.10;99.90;;;;;;12375865;28;20100;-37
2022/05/04 18:24:56;;;;;;;14.18;4.50;;;15.90;99.90;;;;;;12376150;28;20046;-37
2022/05/04 18:31:00;;;;;;;9.68;3.78;;;15.50;99.90;;;;;;12374701;28;20050;-39
2022/05/04 18:37:02;;;;;;;9.95;3.60;;;15.30;99.90;;;;;;12374659;28;20061;-36
2022/05/04 18:43:08;;;;;;;13.38;4.25;;;15.10;99.90;;;;;;12373847;28;20172;-38
2022/05/04 18:49:13;;;;;;;12.68;3.95;;;14.80;99.90;;;;;;12358065;28;20137;-38
2022/05/04 18:55:15;;;;;;;9.43;3.83;;;14.60;99.90;;;;;;12371119;28;20081;-37
2022/05/04 19:01:17;;;;;;;8.23;4.05;;;14.40;99.90;;;;;;12375687;28;20077;-38
2022/05/04 19:07:19;;;;;;;12.13;4.60;;;14.30;99.90;;;;;;12374851;28;20105;-37
2022/05/04 19:13:21;;;;;;;9.18;4.00;;;14.20;99.90;;;;;;12374693;28;20089;-38
2022/05/04 19:19:23;;;;;;;9.50;3.90;;;14.10;99.90;;;;;;12376829;28;20050;-38
2022/05/04 19:25:25;;;;;;;11.35;4.18;;;14.20;99.90;;;;;;12373054;28;20085;-37
2022/05/04 19:31:30;;;;;;;10.32;4.40;;;13.90;99.90;;;;;;12373609;28;20264;-37
2022/05/04 19:37:32;;;;;;;8.35;4.28;;;13.70;99.90;;;;;;12375506;28;20050;-36
2022/05/04 19:43:34;;;;;;;8.27;4.20;;;13.60;99.90;;;;;;12372033;28;20054;-38
2022/05/04 19:49:36;;;;;;;8.00;4.18;;;13.70;99.90;;;;;;12374303;28;20046;-38
2022/05/04 19:55:38;;;;;;;11.30;4.40;;;13.40;99.90;;;;;;12374373;28;20053;-37
2022/05/04 20:01:40;;;;;;;7.03;4.45;;;13.10;99.90;;;;;;12374009;28;20601;-37
2022/05/04 20:07:42;;;;;;;9.73;4.72;;;13.00;99.90;;;;;;12375016;28;20086;-38
2022/05/04 20:13:44;;;;;;;9.95;4.60;;;12.90;99.90;;;;;;12377361;28;20479;-38
2022/05/04 20:19:47;;;;;;;13.15;4.47;;;12.70;99.90;;;;;;12382774;28;20121;-36
2022/05/04 20:25:49;;;;;;;12.00;5.35;;;12.70;99.90;;;;;;12382954;28;20161;-36
2022/05/04 20:31:51;;;;;;;7.82;4.65;;;12.60;99.90;;;;;;12383149;28;20049;-37
2022/05/04 20:44:33;;;;;;;12.95;5.20;;;12.30;99.90;;;;;;12379538;28;20149;-35
2022/05/04 20:56:56;;;;;;;11.32;4.90;;;11.90;99.90;;;;;;12381286;28;20509;-37
2022/05/04 21:02:58;;;;;;;11.23;5.40;;;11.80;99.90;;;;;;12380235;28;20081;-36
2022/05/04 21:09:01;;;;;;;14.55;5.97;;;11.50;99.90;;;;;;12378157;28;21686;-37
2022/05/04 21:15:04;;;;;;;10.65;5.43;;;11.40;99.90;;;;;;12381297;28;20053;-36
2022/05/04 21:21:06;;;;;;;13.52;5.75;;;11.30;99.90;;;;;;12383019;28;20058;-38
2022/05/04 21:27:09;;;;;;;13.68;5.65;;;11.50;99.90;;;;;;12379015;28;20046;-36
2022/05/04 21:33:13;;;;;;;11.10;5.68;;;11.60;99.90;;;;;;12378941;28;20100;-38
2022/05/04 21:39:20;;;;;;;18.35;5.78;;;11.40;99.90;;;;;;12380414;28;20059;-37
2022/05/04 21:45:23;;;;;;;10.63;5.18;;;11.60;99.90;;;;;;12377479;28;20546;-36
2022/05/04 21:51:25;;;;;;;13.60;4.68;;;11.50;99.90;;;;;;12377351;28;20095;-36
2022/05/04 21:57:27;;;;;;;8.57;4.03;;;11.40;99.90;;;;;;12378682;28;20184;-38
2022/05/04 22:03:30;;;;;;;7.28;4.03;;;11.30;99.90;;;;;;12378769;28;20066;-39
2022/05/04 22:09:32;;;;;;;9.52;4.05;;;11.30;99.90;;;;;;12378059;28;20065;-38
2022/05/04 22:15:34;;;;;;;8.75;3.88;;;11.20;99.90;;;;;;12376429;28;20141;-39
2022/05/04 22:21:36;;;;;;;11.70;4.22;;;11.10;99.90;;;;;;12374856;28;20050;-36
2022/05/04 22:27:38;;;;;;;11.10;3.92;;;11.00;99.90;;;;;;12382578;28;20483;-39
2022/05/04 22:33:40;;;;;;;11.52;4.05;;;11.00;99.90;;;;;;12380295;28;20061;-39
2022/05/04 22:39:42;;;;;;;12.77;4.10;;;10.90;99.90;;;;;;12375310;28;20042;-36
2022/05/04 22:45:44;;;;;;;9.25;3.80;;;10.70;99.90;;;;;;12373436;28;20081;-38
2022/05/04 22:51:46;;;;;;;11.85;4.40;;;10.60;99.90;;;;;;12374784;28;20078;-38
2022/05/04 22:57:48;;;;;;;10.20;3.47;;;10.50;99.90;;;;;;12375308;28;20046;-38
2022/05/04 23:03:50;;;;;;;8.40;3.72;;;10.40;99.90;;;;;;12375118;28;20061;-37
2022/05/04 23:09:52;;;;;;;7.75;3.97;;;10.40;99.90;;;;;;12361224;28;20050;-37
2022/05/04 23:16:04;;;;;;;10.18;4.28;;;10.40;99.90;;;;;;12373664;28;20858;-37
2022/05/04 23:22:06;;;;;;;10.77;3.97;;;10.30;99.90;;;;;;12376931;28;20480;-38
2022/05/04 23:28:08;;;;;;;10.25;4.32;;;10.00;99.90;;;;;;12373768;28;20074;-36
2022/05/04 23:34:10;;;;;;;8.00;3.30;;;9.90;99.90;;;;;;12373615;28;20089;-38
2022/05/04 23:40:12;;;;;;;7.10;3.63;;;9.80;99.90;;;;;;12374552;28;20136;-36
2022/05/04 23:46:14;;;;;;;7.38;3.42;;;9.80;99.90;;;;;;12373080;28;20141;-37
2022/05/04 23:52:16;;;;;;;8.70;3.38;;;9.80;99.90;;;;;;12377842;28;20042;-37
2022/05/04 23:58:18;;;;;;;11.45;4.43;;;9.80;99.90;;;;;;12382459;28;20561;-37
